Terminal Aerodrome Forecast
Issued by NWS

Home | Current Version | Previous Version | Text Only | Print | Product List | Glossary On
Versions: 1 2 3 4 5 6 7 8 9 10 11 12 13 14 15 16 17 18 19 20 21 22 23 24 25 26 27 28 29
000
FTUS42 KCAE 301740 AAC
TAFCUB
TAF AMD
KCUB 301740Z 3018/0118 18010G16KT P6SM BKN040
     FM302300 17006KT P6SM SCT200
     FM010600 20009KT P6SM BKN015
     FM010900 21010KT P6SM BKN008
     FM011500 21013G20KT P6SM VCSH BKN015=

USA.gov is the U.S. government's official web portal to all federal, state and local government web resources and services.